sensor_id;sensor_type;location;lat;lon;timestamp;pressure;altitude;pressure_sealevel;temperature;humidity
76114;BME280;64845;53.086;5.834;2023-04-08T00:00:05;102437.56;;;5.98;67.44
76114;BME280;64845;53.086;5.834;2023-04-08T00:02:32;102432.22;;;5.95;67.41
76114;BME280;64845;53.086;5.834;2023-04-08T00:04:58;102433.09;;;5.92;67.32
76114;BME280;64845;53.086;5.834;2023-04-08T00:07:23;102432.19;;;5.90;67.19
76114;BME280;64845;53.086;5.834;2023-04-08T00:09:49;102438.38;;;5.90;67.31
76114;BME280;64845;53.086;5.834;2023-04-08T00:12:14;102438.38;;;5.87;67.45
76114;BME280;64845;53.086;5.834;2023-04-08T00:14:40;102445.44;;;5.85;67.38
76114;BME280;64845;53.086;5.834;2023-04-08T00:17:06;102448.06;;;5.84;67.53
76114;BME280;64845;53.086;5.834;2023-04-08T00:19:31;102434.78;;;5.79;67.60
76114;BME280;64845;53.086;5.834;2023-04-08T00:21:57;102442.75;;;5.78;67.60
76114;BME280;64845;53.086;5.834;2023-04-08T00:24:23;102440.06;;;5.74;67.57
76114;BME280;64845;53.086;5.834;2023-04-08T00:26:49;102441.81;;;5.74;67.51
76114;BME280;64845;53.086;5.834;2023-04-08T00:29:14;102443.56;;;5.70;67.35
76114;BME280;64845;53.086;5.834;2023-04-08T00:31:40;102453.25;;;5.68;67.52
76114;BME280;64845;53.086;5.834;2023-04-08T00:34:06;102451.47;;;5.66;67.69
76114;BME280;64845;53.086;5.834;2023-04-08T00:36:31;102453.19;;;5.62;67.90
76114;BME280;64845;53.086;5.834;2023-04-08T00:38:57;102452.28;;;5.60;67.79
76114;BME280;64845;53.086;5.834;2023-04-08T00:41:22;102452.28;;;5.58;67.79
76114;BME280;64845;53.086;5.834;2023-04-08T00:43:47;102452.28;;;5.55;67.68
76114;BME280;64845;53.086;5.834;2023-04-08T00:46:13;102455.78;;;5.53;67.94
76114;BME280;64845;53.086;5.834;2023-04-08T00:48:38;102460.19;;;5.52;67.97
76114;BME280;64845;53.086;5.834;2023-04-08T00:51:04;102451.34;;;5.49;68.05
76114;BME280;64845;53.086;5.834;2023-04-08T00:53:30;102450.44;;;5.45;67.86
76114;BME280;64845;53.086;5.834;2023-04-08T00:55:55;102457.47;;;5.44;68.05
76114;BME280;64845;53.086;5.834;2023-04-08T00:58:21;102461.00;;;5.43;68.19
76114;BME280;64845;53.086;5.834;2023-04-08T01:00:57;102460.09;;;5.41;68.57
76114;BME280;64845;53.086;5.834;2023-04-08T01:03:34;102454.78;;;5.38;68.26
76114;BME280;64845;53.086;5.834;2023-04-08T01:06:31;102464.50;;;5.36;68.17
76114;BME280;64845;53.086;5.834;2023-04-08T01:08:59;102465.31;;;5.34;68.22
76114;BME280;64845;53.086;5.834;2023-04-08T01:11:31;102468.84;;;5.29;68.25
76114;BME280;64845;53.086;5.834;2023-04-08T01:14:01;102471.47;;;5.26;68.34
76114;BME280;64845;53.086;5.834;2023-04-08T01:16:30;102469.66;;;5.24;68.89
76114;BME280;64845;53.086;5.834;2023-04-08T01:18:56;102460.84;;;5.23;68.66
76114;BME280;64845;53.086;5.834;2023-04-08T01:21:23;102460.81;;;5.22;68.53
76114;BME280;64845;53.086;5.834;2023-04-08T01:26:23;102470.50;;;5.18;68.64
76114;BME280;64845;53.086;5.834;2023-04-08T01:28:52;102469.56;;;5.16;68.83
76114;BME280;64845;53.086;5.834;2023-04-08T01:31:19;102469.56;;;5.14;68.71
76114;BME280;64845;53.086;5.834;2023-04-08T01:33:46;102473.06;;;5.12;69.28
76114;BME280;64845;53.086;5.834;2023-04-08T01:36:13;102473.06;;;5.09;68.90
76114;BME280;64845;53.086;5.834;2023-04-08T01:38:40;102477.44;;;5.07;69.29
76114;BME280;64845;53.086;5.834;2023-04-08T01:41:08;102475.66;;;5.06;69.18
76114;BME280;64845;53.086;5.834;2023-04-08T01:43:35;102478.25;;;5.01;69.24
76114;BME280;64845;53.086;5.834;2023-04-08T01:46:02;102476.47;;;4.98;69.33
76114;BME280;64845;53.086;5.834;2023-04-08T01:48:28;102487.91;;;4.96;69.59
76114;BME280;64845;53.086;5.834;2023-04-08T01:50:55;102480.81;;;4.93;69.25
76114;BME280;64845;53.086;5.834;2023-04-08T01:53:21;102486.09;;;4.92;69.26
76114;BME280;64845;53.086;5.834;2023-04-08T01:55:52;102477.25;;;4.91;69.54
76114;BME280;64845;53.086;5.834;2023-04-08T01:58:20;102480.75;;;4.89;69.64
76114;BME280;64845;53.086;5.834;2023-04-08T02:00:47;102479.00;;;4.88;69.57
76114;BME280;64845;53.086;5.834;2023-04-08T02:03:16;102480.72;;;4.86;69.89
76114;BME280;64845;53.086;5.834;2023-04-08T02:05:42;102480.72;;;4.84;69.64
76114;BME280;64845;53.086;5.834;2023-04-08T02:08:08;102481.59;;;4.83;69.86
76114;BME280;64845;53.086;5.834;2023-04-08T02:10:33;102481.56;;;4.81;69.59
76114;BME280;64845;53.086;5.834;2023-04-08T02:12:59;102478.91;;;4.80;69.58
76114;BME280;64845;53.086;5.834;2023-04-08T02:15:27;102483.28;;;4.78;70.12
76114;BME280;64845;53.086;5.834;2023-04-08T02:18:04;102478.84;;;4.75;69.76
76114;BME280;64845;53.086;5.834;2023-04-08T02:20:43;102477.91;;;4.72;69.82
76114;BME280;64845;53.086;5.834;2023-04-08T02:23:17;102474.38;;;4.69;69.88
76114;BME280;64845;53.086;5.834;2023-04-08T02:25:44;102474.34;;;4.68;70.09
76114;BME280;64845;53.086;5.834;2023-04-08T02:28:11;102480.50;;;4.65;70.49
76114;BME280;64845;53.086;5.834;2023-04-08T02:30:41;102482.19;;;4.62;70.02
76114;BME280;64845;53.086;5.834;2023-04-08T02:33:07;102476.03;;;4.60;70.22
76114;BME280;64845;53.086;5.834;2023-04-08T02:35:34;102479.56;;;4.59;70.47
76114;BME280;64845;53.086;5.834;2023-04-08T02:38:00;102476.00;;;4.57;70.17
76114;BME280;64845;53.086;5.834;2023-04-08T02:40:27;102482.16;;;4.56;70.25
76114;BME280;64845;53.086;5.834;2023-04-08T02:42:54;102483.88;;;4.53;70.59
76114;BME280;64845;53.086;5.834;2023-04-08T02:45:19;102490.91;;;4.53;70.69
76114;BME280;64845;53.086;5.834;2023-04-08T02:47:45;102494.41;;;4.50;70.36
76114;BME280;64845;53.086;5.834;2023-04-08T02:50:11;102497.03;;;4.47;70.87
76114;BME280;64845;53.086;5.834;2023-04-08T02:52:36;102497.00;;;4.46;70.83
76114;BME280;64845;53.086;5.834;2023-04-08T02:55:02;102503.16;;;4.45;70.79
76114;BME280;64845;53.086;5.834;2023-04-08T02:57:30;102504.00;;;4.42;70.66
76114;BME280;64845;53.086;5.834;2023-04-08T02:59:56;102499.56;;;4.39;70.85
76114;BME280;64845;53.086;5.834;2023-04-08T03:02:21;102500.44;;;4.38;71.10
76114;BME280;64845;53.086;5.834;2023-04-08T03:04:46;102506.59;;;4.36;70.66
76114;BME280;64845;53.086;5.834;2023-04-08T03:07:12;102510.03;;;4.33;71.04
76114;BME280;64845;53.086;5.834;2023-04-08T03:09:37;102510.03;;;4.32;71.36
76114;BME280;64845;53.086;5.834;2023-04-08T03:12:02;102513.56;;;4.31;70.70
76114;BME280;64845;53.086;5.834;2023-04-08T03:14:28;102518.84;;;4.31;71.06
76114;BME280;64845;53.086;5.834;2023-04-08T03:16:53;102517.06;;;4.30;71.13
76114;BME280;64845;53.086;5.834;2023-04-08T03:19:19;102514.41;;;4.28;71.57
76114;BME280;64845;53.086;5.834;2023-04-08T03:21:44;102524.97;;;4.28;71.15
76114;BME280;64845;53.086;5.834;2023-04-08T03:24:09;102521.44;;;4.28;71.29
76114;BME280;64845;53.086;5.834;2023-04-08T03:26:35;102512.63;;;4.27;71.70
76114;BME280;64845;53.086;5.834;2023-04-08T03:29:00;102522.31;;;4.27;71.87
76114;BME280;64845;53.086;5.834;2023-04-08T03:31:26;102516.13;;;4.26;71.59
76114;BME280;64845;53.086;5.834;2023-04-08T03:33:51;102517.88;;;4.26;71.69
76114;BME280;64845;53.086;5.834;2023-04-08T03:36:17;102524.03;;;4.23;71.79
76114;BME280;64845;53.086;5.834;2023-04-08T03:38:43;102521.38;;;4.21;71.88
76114;BME280;64845;53.086;5.834;2023-04-08T03:41:08;102522.22;;;4.20;71.49
76114;BME280;64845;53.086;5.834;2023-04-08T03:43:34;102531.03;;;4.21;71.74
76114;BME280;64845;53.086;5.834;2023-04-08T03:45:59;102531.03;;;4.21;72.04
76114;BME280;64845;53.086;5.834;2023-04-08T03:48:24;102533.63;;;4.18;71.88
76114;BME280;64845;53.086;5.834;2023-04-08T03:50:50;102533.63;;;4.18;72.31
76114;BME280;64845;53.086;5.834;2023-04-08T03:53:15;102535.41;;;4.17;71.87
76114;BME280;64845;53.086;5.834;2023-04-08T03:55:41;102523.91;;;4.15;72.02
76114;BME280;64845;53.086;5.834;2023-04-08T03:58:06;102530.97;;;4.16;72.48
76114;BME280;64845;53.086;5.834;2023-04-08T04:00:31;102530.94;;;4.15;72.24
76114;BME280;64845;53.086;5.834;2023-04-08T04:02:57;102538.84;;;4.12;72.28
76114;BME280;64845;53.086;5.834;2023-04-08T04:05:22;102547.59;;;4.09;72.46
76114;BME280;64845;53.086;5.834;2023-04-08T04:07:48;102545.00;;;4.11;72.15
76114;BME280;64845;53.086;5.834;2023-04-08T04:10:13;102539.66;;;4.09;72.32
76114;BME280;64845;53.086;5.834;2023-04-08T04:12:38;102544.09;;;4.08;72.73
76114;BME280;64845;53.086;5.834;2023-04-08T04:15:04;102538.75;;;4.07;72.26
76114;BME280;64845;53.086;5.834;2023-04-08T04:17:29;102548.47;;;4.08;72.47
76114;BME280;64845;53.086;5.834;2023-04-08T04:19:55;102550.19;;;4.06;72.48
76114;BME280;64845;53.086;5.834;2023-04-08T04:22:20;102544.84;;;4.03;72.32
76114;BME280;64845;53.086;5.834;2023-04-08T04:24:47;102556.31;;;4.02;72.67
76114;BME280;64845;53.086;5.834;2023-04-08T04:27:13;102562.47;;;4.01;72.78
76114;BME280;64845;53.086;5.834;2023-04-08T04:29:38;102565.13;;;4.02;73.15
76114;BME280;64845;53.086;5.834;2023-04-08T04:32:04;102562.47;;;4.01;72.77
76114;BME280;64845;53.086;5.834;2023-04-08T04:34:30;102566.88;;;4.02;72.91
76114;BME280;64845;53.086;5.834;2023-04-08T04:36:56;102572.13;;;4.00;72.87
76114;BME280;64845;53.086;5.834;2023-04-08T04:39:21;102584.47;;;4.00;72.89
76114;BME280;64845;53.086;5.834;2023-04-08T04:41:47;102584.47;;;4.00;72.87
76114;BME280;64845;53.086;5.834;2023-04-08T04:44:13;102587.06;;;3.97;73.09
76114;BME280;64845;53.086;5.834;2023-04-08T04:46:39;102583.50;;;3.96;73.40
76114;BME280;64845;53.086;5.834;2023-04-08T04:49:04;102580.84;;;3.95;73.47
76114;BME280;64845;53.086;5.834;2023-04-08T04:51:30;102587.88;;;3.92;73.21
76114;BME280;64845;53.086;5.834;2023-04-08T04:54:00;102589.59;;;3.90;73.49
76114;BME280;64845;53.086;5.834;2023-04-08T04:56:25;102591.38;;;3.91;73.02
76114;BME280;64845;53.086;5.834;2023-04-08T04:58:51;102594.88;;;3.90;73.37
76114;BME280;64845;53.086;5.834;2023-04-08T05:01:16;102590.44;;;3.89;73.31
76114;BME280;64845;53.086;5.834;2023-04-08T05:03:42;102596.66;;;3.90;73.07
76114;BME280;64845;53.086;5.834;2023-04-08T05:06:07;102593.09;;;3.89;73.40
76114;BME280;64845;53.086;5.834;2023-04-08T05:08:33;102601.94;;;3.90;73.75
76114;BME280;64845;53.086;5.834;2023-04-08T05:10:58;102592.28;;;3.92;73.19
76114;BME280;64845;53.086;5.834;2023-04-08T05:13:27;102593.16;;;3.92;73.16
76114;BME280;64845;53.086;5.834;2023-04-08T05:15:52;102595.81;;;3.94;73.24
76114;BME280;64845;53.086;5.834;2023-04-08T05:18:17;102602.00;;;3.95;73.29
76114;BME280;64845;53.086;5.834;2023-04-08T05:20:43;102596.72;;;3.96;73.65
76114;BME280;64845;53.086;5.834;2023-04-08T05:23:09;102606.47;;;3.99;73.96
76114;BME280;64845;53.086;5.834;2023-04-08T05:25:35;102613.56;;;4.00;73.85
76114;BME280;64845;53.086;5.834;2023-04-08T05:28:00;102618.84;;;4.01;74.13
76114;BME280;64845;53.086;5.834;2023-04-08T05:30:26;102617.13;;;4.03;73.79
76114;BME280;64845;53.086;5.834;2023-04-08T05:32:51;102614.50;;;4.05;73.72
76114;BME280;64845;53.086;5.834;2023-04-08T05:35:16;102613.56;;;4.03;74.03
76114;BME280;64845;53.086;5.834;2023-04-08T05:37:42;102620.66;;;4.04;73.89
76114;BME280;64845;53.086;5.834;2023-04-08T05:40:08;102618.91;;;4.04;74.28
76114;BME280;64845;53.086;5.834;2023-04-08T05:42:33;102619.78;;;4.05;74.05
76114;BME280;64845;53.086;5.834;2023-04-08T05:44:58;102626.91;;;4.07;73.76
76114;BME280;64845;53.086;5.834;2023-04-08T05:47:24;102627.81;;;4.10;73.96
76114;BME280;64845;53.086;5.834;2023-04-08T05:49:49;102622.56;;;4.13;73.85
76114;BME280;64845;53.086;5.834;2023-04-08T05:52:15;102618.16;;;4.13;73.87
76114;BME280;64845;53.086;5.834;2023-04-08T05:54:44;102619.94;;;4.14;74.41
76114;BME280;64845;53.086;5.834;2023-04-08T05:57:10;102624.38;;;4.15;74.62
76114;BME280;64845;53.086;5.834;2023-04-08T05:59:35;102626.22;;;4.19;74.46
76114;BME280;64845;53.086;5.834;2023-04-08T06:02:01;102626.25;;;4.22;74.19
76114;BME280;64845;53.086;5.834;2023-04-08T06:04:26;102628.94;;;4.26;74.16
76114;BME280;64845;53.086;5.834;2023-04-08T06:06:51;102633.34;;;4.25;74.19
76114;BME280;64845;53.086;5.834;2023-04-08T06:09:17;102632.50;;;4.28;74.63
76114;BME280;64845;53.086;5.834;2023-04-08T06:11:42;102629.91;;;4.31;74.24
76114;BME280;64845;53.086;5.834;2023-04-08T06:14:07;102631.75;;;4.36;74.71
76114;BME280;64845;53.086;5.834;2023-04-08T06:16:33;102636.25;;;4.41;74.35
76114;BME280;64845;53.086;5.834;2023-04-08T06:18:58;102637.16;;;4.44;74.53
76114;BME280;64845;53.086;5.834;2023-04-08T06:21:24;102647.84;;;4.49;74.99
76114;BME280;64845;53.086;5.834;2023-04-08T06:23:49;102645.25;;;4.53;74.66
76114;BME280;64845;53.086;5.834;2023-04-08T06:26:14;102644.38;;;4.54;74.99
76114;BME280;64845;53.086;5.834;2023-04-08T06:28:40;102648.00;;;4.60;74.52
76114;BME280;64845;53.086;5.834;2023-04-08T06:31:05;102655.09;;;4.64;74.66
76114;BME280;64845;53.086;5.834;2023-04-08T06:33:31;102657.78;;;4.65;75.05
76114;BME280;64845;53.086;5.834;2023-04-08T06:36:03;102656.91;;;4.66;74.72
76114;BME280;64845;53.086;5.834;2023-04-08T06:38:29;102663.13;;;4.70;74.78
76114;BME280;64845;53.086;5.834;2023-04-08T06:40:55;102661.41;;;4.71;75.07
76114;BME280;64845;53.086;5.834;2023-04-08T06:43:20;102667.56;;;4.73;74.79
76114;BME280;64845;53.086;5.834;2023-04-08T06:45:46;102671.19;;;4.76;75.22
76114;BME280;64845;53.086;5.834;2023-04-08T06:48:11;102671.22;;;4.79;74.66
76114;BME280;64845;53.086;5.834;2023-04-08T06:50:36;102672.16;;;4.83;74.77
76114;BME280;64845;53.086;5.834;2023-04-08T06:53:02;102674.88;;;4.88;74.83
76114;BME280;64845;53.086;5.834;2023-04-08T06:55:27;102670.53;;;4.93;75.33
76114;BME280;64845;53.086;5.834;2023-04-08T06:57:53;102674.16;;;4.98;75.45
76114;BME280;64845;53.086;5.834;2023-04-08T07:00:18;102677.78;;;5.06;75.29
76114;BME280;64845;53.086;5.834;2023-04-08T07:02:43;102687.59;;;5.15;75.40
76114;BME280;64845;53.086;5.834;2023-04-08T07:05:09;102696.56;;;5.25;75.33
76114;BME280;64845;53.086;5.834;2023-04-08T07:07:34;102700.25;;;5.36;75.45
76114;BME280;64845;53.086;5.834;2023-04-08T07:10:00;102696.81;;;5.47;75.53
76114;BME280;64845;53.086;5.834;2023-04-08T07:12:25;102705.78;;;5.55;75.46
76114;BME280;64845;53.086;5.834;2023-04-08T07:14:51;102706.78;;;5.65;75.60
76114;BME280;64845;53.086;5.834;2023-04-08T07:17:17;102701.56;;;5.72;75.38
76114;BME280;64845;53.086;5.834;2023-04-08T07:19:42;102710.47;;;5.81;75.46
76114;BME280;64845;53.086;5.834;2023-04-08T07:22:08;102707.00;;;5.85;75.51
76114;BME280;64845;53.086;5.834;2023-04-08T07:24:33;102714.09;;;5.89;75.32
76114;BME280;64845;53.086;5.834;2023-04-08T07:26:59;102716.81;;;5.92;75.16
76114;BME280;64845;53.086;5.834;2023-04-08T07:29:24;102718.63;;;5.96;75.21
76114;BME280;64845;53.086;5.834;2023-04-08T07:31:50;102726.66;;;6.01;75.24
76114;BME280;64845;53.086;5.834;2023-04-08T07:34:16;102719.59;;;6.04;75.35
76114;BME280;64845;53.086;5.834;2023-04-08T07:36:41;102731.16;;;6.11;75.19
76114;BME280;64845;53.086;5.834;2023-04-08T07:39:06;102717.97;;;6.17;75.27
76114;BME280;64845;53.086;5.834;2023-04-08T07:41:32;102720.66;;;6.22;75.14
76114;BME280;64845;53.086;5.834;2023-04-08T07:43:57;102720.72;;;6.30;75.27
76114;BME280;64845;53.086;5.834;2023-04-08T07:46:23;102722.56;;;6.37;75.24
76114;BME280;64845;53.086;5.834;2023-04-08T07:48:48;102723.53;;;6.45;75.04
76114;BME280;64845;53.086;5.834;2023-04-08T07:51:14;102723.63;;;6.56;75.16
76114;BME280;64845;53.086;5.834;2023-04-08T07:53:39;102721.09;;;6.72;75.13
76114;BME280;64845;53.086;5.834;2023-04-08T07:56:14;102721.19;;;6.86;75.28
76114;BME280;64845;53.086;5.834;2023-04-08T07:58:40;102723.03;;;6.98;75.26
76114;BME280;64845;53.086;5.834;2023-04-08T08:01:19;102726.63;;;7.07;74.96
76114;BME280;64845;53.086;5.834;2023-04-08T08:03:46;102722.25;;;7.13;74.92
76114;BME280;64845;53.086;5.834;2023-04-08T08:06:12;102728.44;;;7.16;74.70
76114;BME280;64845;53.086;5.834;2023-04-08T08:08:37;102740.00;;;7.20;74.81
76114;BME280;64845;53.086;5.834;2023-04-08T08:11:02;102724.94;;;7.19;74.59
76114;BME280;64845;53.086;5.834;2023-04-08T08:13:28;102740.88;;;7.20;74.39
76114;BME280;64845;53.086;5.834;2023-04-08T08:15:53;102735.63;;;7.25;74.58
76114;BME280;64845;53.086;5.834;2023-04-08T08:18:19;102741.81;;;7.30;74.46
76114;BME280;64845;53.086;5.834;2023-04-08T08:20:44;102740.94;;;7.36;74.07
76114;BME280;64845;53.086;5.834;2023-04-08T08:23:10;102749.84;;;7.41;74.44
76114;BME280;64845;53.086;5.834;2023-04-08T08:25:35;102755.22;;;7.47;74.20
76114;BME280;64845;53.086;5.834;2023-04-08T08:28:01;102750.81;;;7.52;74.24
76114;BME280;64845;53.086;5.834;2023-04-08T08:30:26;102748.16;;;7.57;74.21
76114;BME280;64845;53.086;5.834;2023-04-08T08:32:51;102749.09;;;7.62;73.84
76114;BME280;64845;53.086;5.834;2023-04-08T08:35:17;102747.31;;;7.67;73.73
76114;BME280;64845;53.086;5.834;2023-04-08T08:37:42;102749.09;;;7.70;73.27
76114;BME280;64845;53.086;5.834;2023-04-08T08:40:08;102754.44;;;7.75;73.52
76114;BME280;64845;53.086;5.834;2023-04-08T08:42:33;102755.34;;;7.81;73.77
76114;BME280;64845;53.086;5.834;2023-04-08T08:45:02;102750.91;;;7.80;73.67
76114;BME280;64845;53.086;5.834;2023-04-08T08:47:29;102743.81;;;7.79;73.42
76114;BME280;64845;53.086;5.834;2023-04-08T08:49:55;102749.13;;;7.78;73.36
76114;BME280;64845;53.086;5.834;2023-04-08T08:52:20;102742.03;;;7.77;73.00
76114;BME280;64845;53.086;5.834;2023-04-08T08:54:46;102737.59;;;7.80;72.81
76114;BME280;64845;53.086;5.834;2023-04-08T08:57:17;102739.38;;;7.81;73.01
76114;BME280;64845;53.086;5.834;2023-04-08T08:59:47;102734.97;;;7.88;72.89
76114;BME280;64845;53.086;5.834;2023-04-08T09:02:31;102737.66;;;7.99;72.90
76114;BME280;64845;53.086;5.834;2023-04-08T09:04:59;102754.53;;;8.09;73.02
76114;BME280;64845;53.086;5.834;2023-04-08T09:07:35;102758.13;;;8.17;72.82
76114;BME280;64845;53.086;5.834;2023-04-08T09:10:01;102766.09;;;8.22;72.85
76114;BME280;64845;53.086;5.834;2023-04-08T09:12:27;102758.13;;;8.23;72.55
76114;BME280;64845;53.086;5.834;2023-04-08T09:15:06;102751.94;;;8.29;72.44
76114;BME280;64845;53.086;5.834;2023-04-08T09:17:41;102754.59;;;8.37;72.36
76114;BME280;64845;53.086;5.834;2023-04-08T09:20:07;102755.47;;;8.43;72.51
76114;BME280;64845;53.086;5.834;2023-04-08T09:25:31;102757.25;;;8.41;72.10
76114;BME280;64845;53.086;5.834;2023-04-08T09:27:57;102765.22;;;8.35;71.99
76114;BME280;64845;53.086;5.834;2023-04-08T09:30:24;102764.34;;;8.33;71.70
76114;BME280;64845;53.086;5.834;2023-04-08T09:32:52;102766.13;;;8.43;72.20
76114;BME280;64845;53.086;5.834;2023-04-08T09:35:21;102767.06;;;8.58;71.91
76114;BME280;64845;53.086;5.834;2023-04-08T09:37:48;102765.28;;;8.75;71.61
76114;BME280;64845;53.086;5.834;2023-04-08T09:40:14;102765.28;;;8.92;71.45
76114;BME280;64845;53.086;5.834;2023-04-08T09:42:43;102763.47;;;9.04;71.67
76114;BME280;64845;53.086;5.834;2023-04-08T09:45:10;102771.47;;;9.16;71.45
76114;BME280;64845;53.086;5.834;2023-04-08T09:47:56;102770.56;;;9.19;71.09
76114;BME280;64845;53.086;5.834;2023-04-08T09:50:35;102771.47;;;9.21;71.06
76114;BME280;64845;53.086;5.834;2023-04-08T09:53:13;102772.34;;;9.23;70.63
76114;BME280;64845;53.086;5.834;2023-04-08T09:55:46;102762.56;;;9.31;70.59
76114;BME280;64845;53.086;5.834;2023-04-08T09:58:15;102759.84;;;9.37;70.22
76114;BME280;64845;53.086;5.834;2023-04-08T10:00:46;102758.06;;;9.46;70.46
76114;BME280;64845;53.086;5.834;2023-04-08T10:05:40;102761.59;;;9.49;70.11
76114;BME280;64845;53.086;5.834;2023-04-08T10:08:08;102754.50;;;9.50;69.92
76114;BME280;64845;53.086;5.834;2023-04-08T10:10:34;102764.28;;;9.51;70.37
76114;BME280;64845;53.086;5.834;2023-04-08T10:13:02;102757.13;;;9.53;70.09
76114;BME280;64845;53.086;5.834;2023-04-08T10:15:29;102751.81;;;9.58;70.00
76114;BME280;64845;53.086;5.834;2023-04-08T10:20:45;102763.34;;;9.52;69.88
76114;BME280;64845;53.086;5.834;2023-04-08T10:23:12;102754.50;;;9.42;69.87
76114;BME280;64845;53.086;5.834;2023-04-08T10:25:40;102764.28;;;9.42;69.60
76114;BME280;64845;53.086;5.834;2023-04-08T10:28:26;102757.16;;;9.42;69.72
76114;BME280;64845;53.086;5.834;2023-04-08T10:30:54;102762.50;;;9.44;69.93
76114;BME280;64845;53.086;5.834;2023-04-08T10:36:10;102765.19;;;9.44;69.64
76114;BME280;64845;53.086;5.834;2023-04-08T10:38:37;102767.00;;;9.34;69.60
76114;BME280;64845;53.086;5.834;2023-04-08T10:41:03;102759.00;;;9.28;69.60
76114;BME280;64845;53.086;5.834;2023-04-08T10:43:33;102759.91;;;9.17;69.36
76114;BME280;64845;53.086;5.834;2023-04-08T10:45:58;102759.94;;;9.11;69.56
76114;BME280;64845;53.086;5.834;2023-04-08T10:48:24;102751.03;;;9.14;69.50
76114;BME280;64845;53.086;5.834;2023-04-08T10:50:57;102759.91;;;9.19;69.78
76114;BME280;64845;53.086;5.834;2023-04-08T10:55:52;102758.09;;;9.26;69.93
76114;BME280;64845;53.086;5.834;2023-04-08T10:58:18;102757.25;;;9.25;69.84
76114;BME280;64845;53.086;5.834;2023-04-08T11:00:43;102755.44;;;9.29;69.69
76114;BME280;64845;53.086;5.834;2023-04-08T11:03:09;102756.31;;;9.34;70.02
76114;BME280;64845;53.086;5.834;2023-04-08T11:05:36;102758.97;;;9.40;69.85
76114;BME280;64845;53.086;5.834;2023-04-08T11:08:04;102759.84;;;9.44;69.87
76114;BME280;64845;53.086;5.834;2023-04-08T11:10:29;102756.28;;;9.43;70.11
76114;BME280;64845;53.086;5.834;2023-04-08T11:12:56;102747.41;;;9.43;69.97
76114;BME280;64845;53.086;5.834;2023-04-08T11:15:28;102742.94;;;9.43;69.90
76114;BME280;64845;53.086;5.834;2023-04-08T11:17:54;102746.50;;;9.45;69.74
76114;BME280;64845;53.086;5.834;2023-04-08T11:20:20;102738.50;;;9.50;69.97
76114;BME280;64845;53.086;5.834;2023-04-08T11:22:47;102748.28;;;9.51;69.62
76114;BME280;64845;53.086;5.834;2023-04-08T11:25:12;102748.25;;;9.52;69.97
76114;BME280;64845;53.086;5.834;2023-04-08T11:27:38;102750.91;;;9.56;69.83
76114;BME280;64845;53.086;5.834;2023-04-08T11:30:05;102739.34;;;9.60;69.62
76114;BME280;64845;53.086;5.834;2023-04-08T11:32:33;102748.19;;;9.65;69.73
76114;BME280;64845;53.086;5.834;2023-04-08T11:35:00;102744.66;;;9.67;70.08
76114;BME280;64845;53.086;5.834;2023-04-08T11:37:38;102746.41;;;9.70;70.00
76114;BME280;64845;53.086;5.834;2023-04-08T11:40:11;102739.28;;;9.72;70.15
76114;BME280;64845;53.086;5.834;2023-04-08T11:42:38;102739.25;;;9.77;69.81
76114;BME280;64845;53.086;5.834;2023-04-08T11:45:11;102741.06;;;9.76;70.16
76114;BME280;64845;53.086;5.834;2023-04-08T11:47:37;102734.81;;;9.76;69.80
76114;BME280;64845;53.086;5.834;2023-04-08T11:50:03;102734.81;;;9.77;70.00
76114;BME280;64845;53.086;5.834;2023-04-08T11:52:45;102734.81;;;9.76;69.89
76114;BME280;64845;53.086;5.834;2023-04-08T11:55:12;102749.06;;;9.79;69.99
76114;BME280;64845;53.086;5.834;2023-04-08T11:57:45;102742.78;;;9.85;69.66
76114;BME280;64845;53.086;5.834;2023-04-08T12:00:11;102742.78;;;9.88;69.84
76114;BME280;64845;53.086;5.834;2023-04-08T12:02:36;102750.75;;;9.93;70.18
76114;BME280;64845;53.086;5.834;2023-04-08T12:05:02;102757.84;;;9.95;70.05
76114;BME280;64845;53.086;5.834;2023-04-08T12:07:27;102758.72;;;9.99;70.22
76114;BME280;64845;53.086;5.834;2023-04-08T12:09:53;102756.06;;;9.96;69.97
76114;BME280;64845;53.086;5.834;2023-04-08T12:12:19;102754.28;;;9.93;70.09
76114;BME280;64845;53.086;5.834;2023-04-08T12:14:44;102763.19;;;9.95;69.86
76114;BME280;64845;53.086;5.834;2023-04-08T12:17:10;102753.38;;;9.99;69.85
76114;BME280;64845;53.086;5.834;2023-04-08T12:19:35;102759.59;;;10.03;70.16
76114;BME280;64845;53.086;5.834;2023-04-08T12:22:00;102753.31;;;10.08;69.93
76114;BME280;64845;53.086;5.834;2023-04-08T12:24:26;102750.59;;;10.18;70.28
76114;BME280;64845;53.086;5.834;2023-04-08T12:26:51;102746.09;;;10.24;70.06
76114;BME280;64845;53.086;5.834;2023-04-08T12:29:17;102754.06;;;10.32;70.12
76114;BME280;64845;53.086;5.834;2023-04-08T12:31:42;102762.06;;;10.38;70.09
76114;BME280;64845;53.086;5.834;2023-04-08T12:34:07;102757.56;;;10.40;69.66
76114;BME280;64845;53.086;5.834;2023-04-08T12:36:33;102758.47;;;10.38;70.19
76114;BME280;64845;53.086;5.834;2023-04-08T12:38:58;102759.41;;;10.38;70.13
76114;BME280;64845;53.086;5.834;2023-04-08T12:41:23;102762.91;;;10.40;69.84
76114;BME280;64845;53.086;5.834;2023-04-08T12:43:49;102760.25;;;10.42;70.06
76114;BME280;64845;53.086;5.834;2023-04-08T12:46:14;102751.31;;;10.45;70.01
76114;BME280;64845;53.086;5.834;2023-04-08T12:48:40;102754.88;;;10.48;69.73
76114;BME280;64845;53.086;5.834;2023-04-08T12:51:06;102751.25;;;10.52;69.72
76114;BME280;64845;53.086;5.834;2023-04-08T12:53:33;102758.38;;;10.56;70.08
76114;BME280;64845;53.086;5.834;2023-04-08T12:55:58;102757.47;;;10.54;70.13
76114;BME280;64845;53.086;5.834;2023-04-08T12:58:23;102767.28;;;10.57;69.84
76114;BME280;64845;53.086;5.834;2023-04-08T13:00:50;102761.97;;;10.51;69.92
76114;BME280;64845;53.086;5.834;2023-04-08T13:03:15;102759.34;;;10.41;69.42
76114;BME280;64845;53.086;5.834;2023-04-08T13:05:42;102757.63;;;10.34;69.56
76114;BME280;64845;53.086;5.834;2023-04-08T13:08:07;102762.06;;;10.31;69.77
76114;BME280;64845;53.086;5.834;2023-04-08T13:10:33;102753.22;;;10.28;69.68
76114;BME280;64845;53.086;5.834;2023-04-08T13:12:58;102755.91;;;10.25;69.85